Time;durP1;ratioP1;P1;durP2;ratioP2;P2;SDS_P1;SDS_P2;PMS_P1;PMS_P2;Temp;Humidity;BMP_temperature;BMP_pressure;BME280_temperature;BME280_humidity;BME280_pressure;Samples;Min_cycle;Max_cycle;Signal;HPM_P1;HPM_P2
2023/12/14 00:00:22;;;;;;;0.10;0.10;;;5.40;88.90;;;;;;5085985;28;20043;-70
2023/12/14 00:02:47;;;;;;;0.00;0.00;;;5.40;88.90;;;;;;5086863;28;20036;-70
2023/12/14 00:05:13;;;;;;;0.15;0.15;;;5.30;88.80;;;;;;5086541;28;20562;-71
2023/12/14 00:07:39;;;;;;;0.13;0.13;;;5.40;89.00;;;;;;5086682;28;20115;-71
2023/12/14 00:10:05;;;;;;;0.50;0.50;;;5.40;89.10;;;;;;5087543;28;20497;-70
2023/12/14 00:12:31;;;;;;;0.20;0.20;;;5.30;89.00;;;;;;5102442;28;20114;-70
2023/12/14 00:14:57;;;;;;;0.85;0.85;;;5.30;89.00;;;;;;5089470;28;20048;-71
2023/12/14 00:17:22;;;;;;;0.10;0.10;;;5.30;88.80;;;;;;5090462;28;20040;-70
2023/12/14 00:19:48;;;;;;;0.00;0.00;;;5.30;89.00;;;;;;5073062;28;20071;-70
2023/12/14 00:22:13;;;;;;;0.10;0.10;;;5.30;88.90;;;;;;5090825;28;20119;-70
2023/12/14 00:24:39;;;;;;;0.00;0.00;;;5.30;88.90;;;;;;5090267;28;20409;-70
2023/12/14 00:27:04;;;;;;;0.00;0.00;;;5.30;89.10;;;;;;5090521;28;20052;-70
2023/12/14 00:29:30;;;;;;;0.00;0.00;;;5.30;88.90;;;;;;5090309;28;20101;-70
2023/12/14 00:31:56;;;;;;;0.10;0.10;;;5.20;88.90;;;;;;5090084;28;20051;-70
2023/12/14 00:34:21;;;;;;;0.32;0.30;;;5.20;89.00;;;;;;5090459;28;20048;-70
2023/12/14 00:36:47;;;;;;;0.10;0.10;;;5.30;88.60;;;;;;5072319;28;20070;-70
2023/12/14 00:39:13;;;;;;;0.28;0.28;;;5.30;88.90;;;;;;5072100;28;20040;-70
2023/12/14 00:41:38;;;;;;;0.00;0.00;;;5.20;88.60;;;;;;5090130;28;20512;-70
2023/12/14 00:44:04;;;;;;;0.00;0.00;;;5.20;88.80;;;;;;5090483;28;20082;-70
2023/12/14 00:46:29;;;;;;;1.05;1.05;;;5.20;88.50;;;;;;5071419;28;20513;-70
2023/12/14 00:48:55;;;;;;;0.10;0.10;;;5.20;88.60;;;;;;5072179;28;20048;-70
2023/12/14 00:51:21;;;;;;;0.20;0.20;;;5.20;88.50;;;;;;5071852;28;20040;-70
2023/12/14 00:53:46;;;;;;;0.00;0.00;;;5.20;88.40;;;;;;5105408;28;20071;-70
2023/12/14 00:56:12;;;;;;;0.10;0.10;;;5.20;88.10;;;;;;5071664;28;20413;-70
2023/12/14 00:58:38;;;;;;;0.00;0.00;;;5.20;88.20;;;;;;5089605;28;20040;-70
2023/12/14 01:01:03;;;;;;;0.10;0.10;;;5.20;88.30;;;;;;5071697;28;20044;-70
2023/12/14 01:03:29;;;;;;;0.10;0.10;;;5.20;88.40;;;;;;5071458;28;20047;-70
2023/12/14 01:05:55;;;;;;;0.08;0.08;;;5.20;88.40;;;;;;5071883;28;20048;-70
2023/12/14 01:08:20;;;;;;;0.10;0.10;;;5.30;88.30;;;;;;5071300;28;20421;-70
2023/12/14 01:10:46;;;;;;;0.10;0.10;;;5.20;88.10;;;;;;5071676;28;20432;-70
2023/12/14 01:13:12;;;;;;;0.00;0.00;;;5.20;88.00;;;;;;5089893;28;20048;-70
2023/12/14 01:15:37;;;;;;;0.00;0.00;;;5.20;88.20;;;;;;5071411;28;20056;-70
2023/12/14 01:18:03;;;;;;;0.00;0.00;;;5.20;87.90;;;;;;5089107;28;20119;-70
2023/12/14 01:20:29;;;;;;;0.00;0.00;;;5.20;87.70;;;;;;5089247;28;20093;-70
2023/12/14 01:22:54;;;;;;;0.13;0.13;;;5.20;87.20;;;;;;5104611;28;20043;-70
2023/12/14 01:25:20;;;;;;;0.00;0.00;;;5.20;86.80;;;;;;5088159;28;20063;-70
2023/12/14 01:27:45;;;;;;;0.50;0.50;;;5.10;86.80;;;;;;5089657;28;20172;-70
2023/12/14 01:30:11;;;;;;;0.00;0.00;;;5.10;87.00;;;;;;5070894;28;20502;-71
2023/12/14 01:32:37;;;;;;;0.00;0.00;;;5.10;87.10;;;;;;5105065;28;20048;-71
2023/12/14 01:35:03;;;;;;;0.75;0.75;;;5.20;86.80;;;;;;5070770;28;20069;-70
2023/12/14 01:37:29;;;;;;;0.00;0.00;;;5.20;86.60;;;;;;5088999;28;20391;-70
2023/12/14 01:39:54;;;;;;;0.00;0.00;;;5.10;86.40;;;;;;5089076;28;20047;-70
2023/12/14 01:42:20;;;;;;;0.00;0.00;;;5.10;86.70;;;;;;5088928;28;20048;-70
2023/12/14 01:44:45;;;;;;;0.40;0.40;;;5.20;86.70;;;;;;5070572;28;20044;-70
2023/12/14 01:47:11;;;;;;;0.00;0.00;;;5.20;86.80;;;;;;5070846;28;20106;-70
2023/12/14 01:49:37;;;;;;;0.00;0.00;;;5.20;87.00;;;;;;5070127;28;20040;-70
2023/12/14 01:52:02;;;;;;;0.00;0.00;;;5.20;87.10;;;;;;5088695;28;20546;-70
2023/12/14 01:54:28;;;;;;;0.00;0.00;;;5.20;86.90;;;;;;5104769;28;20088;-71
2023/12/14 01:56:54;;;;;;;0.20;0.20;;;5.20;86.80;;;;;;5069753;28;20059;-70
2023/12/14 01:59:20;;;;;;;0.00;0.00;;;5.20;86.80;;;;;;5104377;28;20559;-71
2023/12/14 02:01:52;;;;;;;0.10;0.10;;;5.10;86.60;;;;;;5070320;28;20048;-71
2023/12/14 02:04:17;;;;;;;0.00;0.00;;;5.10;86.80;;;;;;5104650;28;20406;-70
2023/12/14 02:06:43;;;;;;;0.00;0.00;;;5.20;86.40;;;;;;5088268;28;20037;-70
2023/12/14 02:09:09;;;;;;;0.00;0.00;;;5.20;86.20;;;;;;5070468;28;20512;-71
2023/12/14 02:11:36;;;;;;;0.10;0.10;;;5.10;86.50;;;;;;5087772;28;20056;-70
2023/12/14 02:14:05;;;;;;;0.10;0.10;;;5.10;86.70;;;;;;5088470;28;20513;-71
2023/12/14 02:16:32;;;;;;;0.65;0.65;;;5.10;86.80;;;;;;5088113;28;20048;-71
2023/12/14 02:18:57;;;;;;;0.00;0.00;;;5.20;86.90;;;;;;5070448;28;20130;-71
2023/12/14 02:21:23;;;;;;;0.22;0.22;;;5.20;87.00;;;;;;5069852;28;20866;-70
2023/12/14 02:23:48;;;;;;;0.00;0.00;;;5.20;86.70;;;;;;5088221;28;20402;-70
2023/12/14 02:26:14;;;;;;;0.00;0.00;;;5.10;86.60;;;;;;5069982;28;20135;-71
2023/12/14 02:28:40;;;;;;;0.00;0.00;;;5.10;86.50;;;;;;5070313;28;20143;-70
2023/12/14 02:31:06;;;;;;;0.20;0.20;;;5.20;86.60;;;;;;5088177;28;20051;-70
2023/12/14 02:33:32;;;;;;;0.10;0.10;;;5.10;86.30;;;;;;5087930;28;20494;-70
2023/12/14 02:35:58;;;;;;;0.08;0.08;;;5.10;86.50;;;;;;5069214;28;20048;-70
2023/12/14 02:38:23;;;;;;;0.15;0.15;;;5.10;86.50;;;;;;5069864;28;20071;-70
2023/12/14 02:40:52;;;;;;;0.73;0.73;;;5.10;86.30;;;;;;5087855;28;20127;-70
2023/12/14 02:43:18;;;;;;;1.85;0.47;;;5.10;86.20;;;;;;5087969;28;20094;-71
2023/12/14 02:45:45;;;;;;;0.00;0.00;;;5.10;86.30;;;;;;5087954;28;20391;-70
2023/12/14 02:48:10;;;;;;;0.03;0.03;;;5.10;86.10;;;;;;5069845;28;20109;-71
2023/12/14 02:50:36;;;;;;;0.00;0.00;;;5.10;86.30;;;;;;5069530;28;20048;-70
2023/12/14 02:53:01;;;;;;;0.90;0.85;;;5.10;86.30;;;;;;5087714;28;20056;-71
2023/12/14 02:55:27;;;;;;;0.10;0.10;;;5.10;86.60;;;;;;5053211;28;20048;-70
2023/12/14 02:57:53;;;;;;;0.00;0.00;;;5.10;86.80;;;;;;5087374;28;20394;-70
2023/12/14 03:00:19;;;;;;;0.00;0.00;;;5.10;86.60;;;;;;5087479;28;20482;-70
2023/12/14 03:02:45;;;;;;;0.20;0.20;;;5.10;86.50;;;;;;5103220;28;20046;-71
2023/12/14 03:05:11;;;;;;;0.00;0.00;;;5.20;86.50;;;;;;5087428;28;20117;-70
2023/12/14 03:07:36;;;;;;;0.00;0.00;;;5.20;86.40;;;;;;5087143;28;20152;-70
2023/12/14 03:10:03;;;;;;;0.08;0.08;;;5.10;86.20;;;;;;5087417;28;20044;-70
2023/12/14 03:12:29;;;;;;;0.10;0.10;;;5.20;86.00;;;;;;5087417;28;20048;-70
2023/12/14 03:14:54;;;;;;;0.00;0.00;;;5.10;86.00;;;;;;5087122;28;20169;-70
2023/12/14 03:17:20;;;;;;;0.00;0.00;;;5.20;86.00;;;;;;5087363;28;20051;-70
2023/12/14 03:19:45;;;;;;;0.10;0.10;;;5.10;85.60;;;;;;5069236;28;20047;-70
2023/12/14 03:22:11;;;;;;;0.00;0.00;;;5.10;85.80;;;;;;5086867;28;20071;-70
2023/12/14 03:24:37;;;;;;;0.00;0.00;;;5.20;85.70;;;;;;5069071;28;20835;-70
2023/12/14 03:27:03;;;;;;;0.20;0.20;;;5.10;85.40;;;;;;5068895;28;20090;-70
2023/12/14 03:29:29;;;;;;;0.00;0.00;;;5.10;85.50;;;;;;5068709;28;20596;-70
2023/12/14 03:31:56;;;;;;;0.00;0.00;;;5.20;85.70;;;;;;5087058;28;20083;-71
2023/12/14 03:34:21;;;;;;;0.00;0.00;;;5.20;86.00;;;;;;5102889;28;20388;-70
2023/12/14 03:36:47;;;;;;;0.00;0.00;;;5.20;86.00;;;;;;5086611;28;20046;-70
2023/12/14 03:39:13;;;;;;;0.10;0.10;;;5.30;86.20;;;;;;5068739;28;20040;-71
2023/12/14 03:41:38;;;;;;;0.00;0.00;;;5.20;86.30;;;;;;5086619;28;20159;-70
2023/12/14 03:44:04;;;;;;;0.10;0.10;;;5.30;86.40;;;;;;5068898;28;20395;-70
2023/12/14 03:46:30;;;;;;;0.03;0.03;;;5.20;86.50;;;;;;5086822;28;20055;-71
2023/12/14 03:48:56;;;;;;;0.10;0.10;;;5.30;86.70;;;;;;5089924;28;20086;-71
2023/12/14 03:51:21;;;;;;;0.00;0.00;;;5.20;86.60;;;;;;5090737;28;20478;-70
2023/12/14 03:53:47;;;;;;;0.10;0.10;;;5.20;86.90;;;;;;5090488;28;20036;-70
2023/12/14 03:56:12;;;;;;;0.15;0.15;;;5.20;86.90;;;;;;5091002;28;20067;-70
2023/12/14 03:58:38;;;;;;;0.00;0.00;;;5.20;87.00;;;;;;5090747;28;20130;-70
2023/12/14 04:01:04;;;;;;;0.10;0.10;;;5.20;87.10;;;;;;5090889;28;20135;-71
2023/12/14 04:03:30;;;;;;;0.00;0.00;;;5.20;87.40;;;;;;5090700;28;20074;-70
2023/12/14 04:05:55;;;;;;;0.00;0.00;;;5.20;87.60;;;;;;5055759;28;20044;-71
2023/12/14 04:08:21;;;;;;;0.00;0.00;;;5.20;87.60;;;;;;5072820;28;20141;-71
2023/12/14 04:10:46;;;;;;;0.03;0.03;;;5.20;87.80;;;;;;5090739;28;20111;-71
2023/12/14 04:13:12;;;;;;;0.25;0.25;;;5.30;87.80;;;;;;5090962;28;20155;-70
2023/12/14 04:15:38;;;;;;;0.00;0.00;;;5.20;87.80;;;;;;5090503;28;20129;-70
2023/12/14 04:18:03;;;;;;;0.00;0.00;;;5.30;88.00;;;;;;5072348;28;20043;-70
2023/12/14 04:20:29;;;;;;;0.10;0.10;;;5.30;88.00;;;;;;5072070;28;20521;-71
2023/12/14 04:22:55;;;;;;;0.28;0.28;;;5.30;88.00;;;;;;5090905;28;20056;-70
2023/12/14 04:25:20;;;;;;;0.00;0.00;;;5.30;88.10;;;;;;5072236;28;20143;-70
2023/12/14 04:27:46;;;;;;;0.00;0.00;;;5.30;88.20;;;;;;5072014;28;20043;-70
2023/12/14 04:30:12;;;;;;;0.10;0.10;;;5.30;88.20;;;;;;5090335;28;20081;-71
2023/12/14 04:32:38;;;;;;;0.00;0.00;;;5.40;88.40;;;;;;5090048;28;20091;-71
2023/12/14 04:35:05;;;;;;;2.83;0.55;;;5.40;88.40;;;;;;5090103;28;20043;-71
2023/12/14 04:37:31;;;;;;;0.00;0.00;;;5.40;88.50;;;;;;5090052;28;20054;-71
2023/12/14 04:39:57;;;;;;;0.52;0.52;;;5.40;88.50;;;;;;5072246;28;20040;-71
2023/12/14 04:42:23;;;;;;;0.00;0.00;;;5.40;88.50;;;;;;5090213;28;20121;-71
2023/12/14 04:44:48;;;;;;;0.00;0.00;;;5.40;88.40;;;;;;5089992;28;20522;-71
2023/12/14 04:47:14;;;;;;;0.10;0.10;;;5.40;88.50;;;;;;5089661;28;20410;-71
2023/12/14 04:49:40;;;;;;;0.08;0.08;;;5.40;88.50;;;;;;5089962;28;20119;-71
2023/12/14 04:52:06;;;;;;;0.08;0.08;;;5.40;88.50;;;;;;5090349;28;20094;-71
2023/12/14 04:54:35;;;;;;;0.20;0.20;;;5.40;88.40;;;;;;5090016;28;20044;-71
2023/12/14 04:57:01;;;;;;;1.45;0.80;;;5.30;88.40;;;;;;5090313;28;20048;-71
2023/12/14 04:59:26;;;;;;;0.10;0.10;;;5.30;88.60;;;;;;5070587;28;20042;-71
2023/12/14 05:01:52;;;;;;;0.10;0.10;;;5.40;88.50;;;;;;5089810;28;20115;-70
2023/12/14 05:04:17;;;;;;;0.00;0.00;;;5.40;88.60;;;;;;5090095;28;20098;-70
2023/12/14 05:06:43;;;;;;;0.88;0.63;;;5.30;88.60;;;;;;5071629;28;20127;-71
2023/12/14 05:09:11;;;;;;;0.00;0.00;;;5.30;88.60;;;;;;5105862;28;20050;-71
2023/12/14 05:11:39;;;;;;;0.00;0.00;;;5.40;88.70;;;;;;5089653;28;20048;-71
2023/12/14 05:14:04;;;;;;;0.20;0.20;;;5.30;88.60;;;;;;5105338;28;20048;-71
2023/12/14 05:16:30;;;;;;;0.13;0.13;;;5.30;88.60;;;;;;5071670;28;20055;-71
2023/12/14 05:18:57;;;;;;;0.10;0.10;;;5.30;88.50;;;;;;5089690;28;20495;-71
2023/12/14 05:21:22;;;;;;;0.00;0.00;;;5.30;88.70;;;;;;5104714;28;20576;-71
2023/12/14 05:23:48;;;;;;;0.03;0.03;;;5.30;88.70;;;;;;5105228;28;20032;-71
2023/12/14 05:26:14;;;;;;;1.45;0.30;;;5.30;88.70;;;;;;5089107;28;20051;-71
2023/12/14 05:28:40;;;;;;;0.00;0.00;;;5.30;88.70;;;;;;5089685;28;20449;-71
2023/12/14 05:31:05;;;;;;;0.00;0.00;;;5.30;88.80;;;;;;5071021;28;20127;-70
2023/12/14 05:33:33;;;;;;;0.08;0.08;;;5.30;88.80;;;;;;5088611;28;20040;-71
2023/12/14 05:35:59;;;;;;;0.43;0.40;;;5.40;88.80;;;;;;5104617;28;20130;-70
2023/12/14 05:38:24;;;;;;;0.10;0.10;;;5.40;88.80;;;;;;5088599;28;20131;-71
2023/12/14 05:40:50;;;;;;;0.03;0.03;;;5.40;88.80;;;;;;5088685;28;20059;-71
2023/12/14 05:43:16;;;;;;;0.00;0.00;;;5.40;88.80;;;;;;5088786;28;20047;-71
2023/12/14 05:45:41;;;;;;;0.00;0.00;;;5.40;88.80;;;;;;5070676;28;20789;-71
2023/12/14 05:48:07;;;;;;;0.00;0.00;;;5.40;88.80;;;;;;5070657;28;20040;-71
2023/12/14 05:50:32;;;;;;;0.10;0.10;;;5.50;88.90;;;;;;5088530;28;20140;-71
2023/12/14 05:52:58;;;;;;;0.00;0.00;;;5.50;89.00;;;;;;5089003;28;20040;-70
2023/12/14 05:55:24;;;;;;;0.03;0.03;;;5.50;89.00;;;;;;5088103;28;20044;-71
2023/12/14 05:57:50;;;;;;;0.00;0.00;;;5.50;88.90;;;;;;5088663;28;20047;-71
2023/12/14 06:00:16;;;;;;;0.22;0.22;;;5.50;88.90;;;;;;5088445;28;20115;-71
2023/12/14 06:02:41;;;;;;;0.03;0.03;;;5.50;88.90;;;;;;5088494;28;20097;-71
2023/12/14 06:05:08;;;;;;;0.10;0.10;;;5.50;89.00;;;;;;5088311;28;20550;-71
2023/12/14 06:07:33;;;;;;;0.10;0.10;;;5.50;89.00;;;;;;5088665;28;20092;-71
2023/12/14 06:10:00;;;;;;;0.00;0.00;;;5.60;89.00;;;;;;5070680;28;20047;-71
2023/12/14 06:12:26;;;;;;;0.00;0.00;;;5.50;89.00;;;;;;5104371;28;20048;-71
2023/12/14 06:14:52;;;;;;;0.10;0.10;;;5.50;89.00;;;;;;5070291;28;20097;-71
2023/12/14 06:17:18;;;;;;;0.00;0.00;;;5.50;89.00;;;;;;5070010;28;20052;-71
2023/12/14 06:19:43;;;;;;;0.00;0.00;;;5.60;89.10;;;;;;5070249;28;20470;-71
2023/12/14 06:22:09;;;;;;;0.08;0.08;;;5.50;88.80;;;;;;5088040;28;20486;-71
2023/12/14 06:24:34;;;;;;;0.00;0.00;;;5.50;88.90;;;;;;5087561;28;20040;-71
2023/12/14 06:27:00;;;;;;;0.00;0.00;;;5.40;88.70;;;;;;5070257;28;20131;-71
2023/12/14 06:29:26;;;;;;;0.20;0.20;;;5.40;88.60;;;;;;5070111;28;20052;-71
2023/12/14 06:31:52;;;;;;;0.05;0.05;;;5.40;88.70;;;;;;5088243;28;20117;-71
2023/12/14 06:34:18;;;;;;;1.45;1.20;;;5.40;88.70;;;;;;5103748;28;20047;-71
2023/12/14 06:36:45;;;;;;;0.00;0.00;;;5.30;88.50;;;;;;5087653;28;20042;-71
2023/12/14 06:39:11;;;;;;;0.00;0.00;;;5.40;88.50;;;;;;5087854;28;20039;-71
2023/12/14 06:41:36;;;;;;;0.10;0.10;;;5.30;88.70;;;;;;5087642;28;20474;-71
2023/12/14 06:44:02;;;;;;;0.08;0.08;;;5.40;88.70;;;;;;5070039;28;20090;-71
2023/12/14 06:46:28;;;;;;;0.00;0.00;;;5.40;88.70;;;;;;5069270;28;20052;-71
2023/12/14 06:48:55;;;;;;;0.10;0.10;;;5.50;88.80;;;;;;5069615;28;20127;-71
2023/12/14 06:51:21;;;;;;;0.08;0.08;;;5.50;88.70;;;;;;5087676;28;20055;-71
2023/12/14 06:53:47;;;;;;;0.00;0.00;;;5.50;88.70;;;;;;5069873;28;20145;-71
2023/12/14 06:56:13;;;;;;;0.05;0.05;;;5.50;88.70;;;;;;5087792;28;20081;-71
2023/12/14 06:58:40;;;;;;;0.00;0.00;;;5.50;88.60;;;;;;5087506;28;20126;-71
2023/12/14 07:01:06;;;;;;;0.28;0.28;;;5.60;88.60;;;;;;5103298;28;20555;-71
2023/12/14 07:03:32;;;;;;;0.00;0.00;;;5.60;88.60;;;;;;5086992;28;20044;-71
2023/12/14 07:05:58;;;;;;;0.03;0.03;;;5.60;88.60;;;;;;5087634;28;20416;-71
2023/12/14 07:08:24;;;;;;;0.00;0.00;;;5.60;88.60;;;;;;5069294;28;20044;-71
2023/12/14 07:10:50;;;;;;;0.10;0.10;;;5.70;88.60;;;;;;5069236;28;20068;-71
2023/12/14 07:13:16;;;;;;;0.00;0.00;;;5.70;88.60;;;;;;5087330;28;20417;-71
2023/12/14 07:15:41;;;;;;;0.00;0.00;;;5.70;88.70;;;;;;5087003;28;20062;-71
2023/12/14 07:18:07;;;;;;;0.00;0.00;;;5.70;88.70;;;;;;5087395;28;20498;-71
2023/12/14 07:20:33;;;;;;;0.00;0.00;;;5.70;88.70;;;;;;5087150;28;20044;-71
2023/12/14 07:22:58;;;;;;;0.00;0.00;;;5.70;88.70;;;;;;5068875;28;20055;-71
2023/12/14 07:25:24;;;;;;;0.00;0.00;;;5.80;88.60;;;;;;5068666;28;20079;-71
2023/12/14 07:27:50;;;;;;;0.00;0.00;;;5.90;88.60;;;;;;5069290;28;20159;-71
2023/12/14 07:30:16;;;;;;;0.00;0.00;;;5.90;88.40;;;;;;5102811;28;20048;-71
2023/12/14 07:32:42;;;;;;;0.00;0.00;;;5.90;88.50;;;;;;5086866;28;20093;-71
2023/12/14 07:35:08;;;;;;;0.00;0.00;;;5.90;88.40;;;;;;5102999;28;20113;-71
2023/12/14 07:37:34;;;;;;;0.00;0.00;;;5.80;88.40;;;;;;5086326;28;20056;-71
2023/12/14 07:39:59;;;;;;;0.00;0.00;;;5.90;88.30;;;;;;5087013;28;20839;-71
2023/12/14 07:42:25;;;;;;;0.00;0.00;;;5.90;88.40;;;;;;5086930;28;20066;-71
2023/12/14 07:44:51;;;;;;;0.00;0.00;;;5.90;88.40;;;;;;5086609;28;20044;-71
2023/12/14 07:47:17;;;;;;;0.00;0.00;;;5.80;88.50;;;;;;5086751;28;20076;-71
2023/12/14 07:49:43;;;;;;;0.10;0.10;;;5.90;88.40;;;;;;5086562;28;20128;-71
2023/12/14 07:52:09;;;;;;;0.00;0.00;;;5.90;88.40;;;;;;5068790;28;20421;-71
2023/12/14 07:54:35;;;;;;;0.03;0.03;;;5.90;88.40;;;;;;5102254;28;20129;-71
2023/12/14 07:57:01;;;;;;;0.00;0.00;;;6.00;88.50;;;;;;5086654;28;20052;-71
2023/12/14 07:59:26;;;;;;;0.10;0.10;;;6.00;88.40;;;;;;5086834;28;20517;-71
2023/12/14 08:01:52;;;;;;;0.00;0.00;;;6.00;88.40;;;;;;5068439;28;20153;-71
2023/12/14 08:04:18;;;;;;;0.00;0.00;;;6.00;88.40;;;;;;5068931;28;20079;-71
2023/12/14 08:06:43;;;;;;;0.00;0.00;;;6.00;88.40;;;;;;5086552;28;20032;-71
2023/12/14 08:09:09;;;;;;;0.00;0.00;;;6.10;88.30;;;;;;5068755;28;20039;-71
2023/12/14 08:11:35;;;;;;;0.03;0.03;;;6.10;88.40;;;;;;5068439;28;20635;-71
2023/12/14 08:14:00;;;;;;;0.00;0.00;;;6.10;88.40;;;;;;5086631;28;20048;-71
2023/12/14 08:16:26;;;;;;;0.00;0.00;;;6.20;88.50;;;;;;5068569;28;20048;-71
2023/12/14 08:18:51;;;;;;;0.00;0.00;;;6.10;88.50;;;;;;5086681;28;20140;-71
2023/12/14 08:21:18;;;;;;;0.00;0.00;;;6.20;88.50;;;;;;5086381;28;20426;-71
2023/12/14 08:23:43;;;;;;;0.00;0.00;;;6.30;88.60;;;;;;5102247;28;20044;-71
2023/12/14 08:26:12;;;;;;;0.00;0.00;;;6.30;88.50;;;;;;5051621;28;20423;-71
2023/12/14 08:28:39;;;;;;;0.00;0.00;;;6.20;88.50;;;;;;5086067;28;20098;-71
2023/12/14 08:31:05;;;;;;;0.10;0.10;;;6.30;88.60;;;;;;5086661;28;20137;-71
2023/12/14 08:33:31;;;;;;;0.10;0.10;;;6.30;88.60;;;;;;5068303;28;20047;-71
2023/12/14 08:35:56;;;;;;;0.00;0.00;;;6.30;88.50;;;;;;5070961;28;20044;-71
2023/12/14 08:38:22;;;;;;;0.00;0.00;;;6.30;88.60;;;;;;5071961;28;20036;-71
2023/12/14 08:40:48;;;;;;;0.00;0.00;;;6.30;88.50;;;;;;5089631;28;20073;-71
2023/12/14 08:43:14;;;;;;;0.10;0.10;;;6.30;88.50;;;;;;5088663;28;20097;-71
2023/12/14 08:45:39;;;;;;;0.10;0.10;;;6.30;88.60;;;;;;5089932;28;20086;-71
2023/12/14 08:48:05;;;;;;;0.00;0.00;;;6.40;88.50;;;;;;5072316;28;20072;-71
2023/12/14 08:50:31;;;;;;;0.00;0.00;;;6.30;88.40;;;;;;5105496;28;20078;-71
2023/12/14 08:53:00;;;;;;;0.00;0.00;;;6.40;88.40;;;;;;5071656;28;20040;-71
2023/12/14 08:55:26;;;;;;;0.10;0.10;;;6.40;88.40;;;;;;5089899;28;20582;-72
2023/12/14 08:57:52;;;;;;;0.10;0.10;;;6.40;88.40;;;;;;5089510;28;20063;-72
2023/12/14 09:00:18;;;;;;;0.00;0.00;;;6.40;88.50;;;;;;5071652;28;20040;-71
2023/12/14 09:02:45;;;;;;;0.10;0.10;;;6.50;88.50;;;;;;5089747;28;20044;-71
2023/12/14 09:05:12;;;;;;;0.10;0.10;;;6.50;88.50;;;;;;5089792;28;20075;-71
2023/12/14 09:07:38;;;;;;;0.10;0.10;;;6.50;88.50;;;;;;5105374;28;20127;-71
2023/12/14 09:10:04;;;;;;;0.00;0.00;;;6.50;88.40;;;;;;5089451;28;21109;-71
2023/12/14 09:12:30;;;;;;;0.10;0.10;;;6.60;88.30;;;;;;5089736;28;20040;-71
2023/12/14 09:14:55;;;;;;;0.00;0.00;;;6.60;88.30;;;;;;5071358;28;20490;-71
2023/12/14 09:17:21;;;;;;;0.10;0.10;;;6.60;88.30;;;;;;5104877;28;20468;-71
2023/12/14 09:19:47;;;;;;;0.10;0.10;;;6.60;88.30;;;;;;5088875;28;20072;-71
2023/12/14 09:22:12;;;;;;;0.00;0.00;;;6.60;88.40;;;;;;5070840;28;20052;-71
2023/12/14 09:24:38;;;;;;;0.00;0.00;;;6.60;88.50;;;;;;5088544;28;20086;-71
2023/12/14 09:27:04;;;;;;;0.08;0.08;;;6.60;88.40;;;;;;5088753;28;20526;-72
2023/12/14 09:29:29;;;;;;;0.08;0.08;;;6.70;88.50;;;;;;5089020;28;20494;-71
2023/12/14 09:31:55;;;;;;;0.00;0.00;;;6.70;88.50;;;;;;5088873;28;20428;-71
2023/12/14 09:34:21;;;;;;;0.00;0.00;;;6.70;88.50;;;;;;5089024;28;20048;-72
2023/12/14 09:36:46;;;;;;;0.00;0.00;;;6.70;88.50;;;;;;5070555;28;20048;-72
2023/12/14 09:39:12;;;;;;;0.10;0.10;;;6.80;88.40;;;;;;5088855;28;20097;-71
2023/12/14 09:41:38;;;;;;;0.00;0.00;;;6.80;88.40;;;;;;5088343;28;20048;-72
2023/12/14 09:44:06;;;;;;;0.10;0.10;;;6.80;88.30;;;;;;5088837;28;20723;-71
2023/12/14 09:46:34;;;;;;;0.00;0.00;;;6.80;88.20;;;;;;5069961;28;20044;-72
2023/12/14 09:49:01;;;;;;;0.00;0.00;;;6.80;88.20;;;;;;5088518;28;20062;-72
2023/12/14 09:51:27;;;;;;;0.20;0.20;;;6.80;88.10;;;;;;5070608;28;20044;-72
2023/12/14 09:53:57;;;;;;;0.00;0.00;;;6.80;88.10;;;;;;5088528;28;20048;-72
2023/12/14 09:56:24;;;;;;;0.03;0.03;;;6.80;88.00;;;;;;5088406;28;20097;-72
2023/12/14 09:58:50;;;;;;;0.10;0.10;;;6.80;87.60;;;;;;5070461;28;20052;-72
2023/12/14 10:01:24;;;;;;;0.03;0.03;;;6.80;87.70;;;;;;5088420;28;20038;-72
2023/12/14 10:03:50;;;;;;;0.10;0.10;;;6.80;87.70;;;;;;5088427;28;20076;-72
2023/12/14 10:06:18;;;;;;;0.10;0.10;;;6.80;87.60;;;;;;5070055;28;20410;-72
2023/12/14 10:08:55;;;;;;;0.00;0.00;;;6.90;87.80;;;;;;5069935;28;20052;-72
2023/12/14 10:11:22;;;;;;;0.10;0.10;;;6.90;87.80;;;;;;5070688;28;20042;-72
2023/12/14 10:13:47;;;;;;;0.00;0.00;;;6.90;87.80;;;;;;5088646;28;20485;-71
2023/12/14 10:16:25;;;;;;;0.15;0.15;;;6.90;87.90;;;;;;5070444;28;20066;-71
2023/12/14 10:18:51;;;;;;;0.05;0.05;;;6.90;87.80;;;;;;5088357;28;20052;-71
2023/12/14 10:21:17;;;;;;;0.00;0.00;;;6.90;87.80;;;;;;5070573;28;20081;-71
2023/12/14 10:23:46;;;;;;;0.10;0.10;;;6.80;87.70;;;;;;5070231;28;20502;-71
2023/12/14 10:26:12;;;;;;;0.00;0.00;;;6.80;87.80;;;;;;5087973;28;20145;-71
2023/12/14 10:28:39;;;;;;;0.10;0.10;;;6.90;87.90;;;;;;5069821;28;20600;-71
2023/12/14 10:31:05;;;;;;;0.10;0.10;;;6.90;87.80;;;;;;5070094;28;20155;-71
2023/12/14 10:33:31;;;;;;;0.15;0.15;;;6.80;87.30;;;;;;5088527;28;20196;-71
2023/12/14 10:35:57;;;;;;;0.00;0.00;;;6.80;87.10;;;;;;5087432;28;20051;-71
2023/12/14 10:38:25;;;;;;;0.10;0.10;;;6.90;87.20;;;;;;5103652;28;20051;-71
2023/12/14 10:40:53;;;;;;;0.00;0.00;;;6.90;87.10;;;;;;5104004;28;20058;-71
2023/12/14 10:43:19;;;;;;;0.00;0.00;;;6.90;87.10;;;;;;5087642;28;20044;-71
2023/12/14 10:45:51;;;;;;;0.00;0.00;;;6.90;87.00;;;;;;5068415;28;20509;-71
2023/12/14 10:48:20;;;;;;;0.03;0.03;;;7.00;87.00;;;;;;5086721;28;20048;-71
2023/12/14 10:50:48;;;;;;;0.10;0.10;;;6.90;85.70;;;;;;5086957;28;20061;-72
2023/12/14 10:53:14;;;;;;;0.10;0.10;;;6.90;85.90;;;;;;5085686;28;20048;-72
2023/12/14 10:55:44;;;;;;;0.10;0.10;;;6.90;85.90;;;;;;5068432;28;20410;-71
2023/12/14 10:58:11;;;;;;;0.00;0.00;;;6.90;86.30;;;;;;5086237;28;20044;-71
2023/12/14 11:00:37;;;;;;;0.00;0.00;;;6.80;85.40;;;;;;5087391;28;20502;-71
2023/12/14 11:03:06;;;;;;;0.10;0.10;;;6.70;85.00;;;;;;5087180;28;20533;-71
2023/12/14 11:05:36;;;;;;;0.10;0.10;;;6.60;85.20;;;;;;5103007;28;20052;-71
2023/12/14 11:08:08;;;;;;;0.00;0.00;;;6.60;85.00;;;;;;5087371;28;20383;-71
2023/12/14 11:10:56;;;;;;;0.00;0.00;;;6.60;85.30;;;;;;5069000;28;20051;-71
2023/12/14 11:13:23;;;;;;;0.10;0.10;;;6.50;85.20;;;;;;5103395;28;20054;-71
2023/12/14 11:15:51;;;;;;;0.03;0.03;;;6.50;85.20;;;;;;5087243;28;20063;-71
2023/12/14 11:18:24;;;;;;;0.00;0.00;;;6.40;84.90;;;;;;5087534;28;20047;-71
2023/12/14 11:21:24;;;;;;;0.43;0.40;;;6.40;85.10;;;;;;5087061;28;20109;-71
2023/12/14 11:23:50;;;;;;;0.00;0.00;;;6.50;85.20;;;;;;5069125;28;20134;-71
2023/12/14 11:26:24;;;;;;;0.10;0.10;;;6.50;85.20;;;;;;5087070;28;20144;-71
2023/12/14 11:28:52;;;;;;;0.05;0.05;;;6.50;85.20;;;;;;5068905;28;20075;-71
2023/12/14 11:31:18;;;;;;;0.00;0.00;;;6.60;85.40;;;;;;5087015;28;20097;-71
2023/12/14 11:33:44;;;;;;;0.00;0.00;;;6.60;85.40;;;;;;5069044;28;20051;-71
2023/12/14 11:36:12;;;;;;;0.00;0.00;;;6.60;84.80;;;;;;5052054;28;20040;-71
2023/12/14 11:38:38;;;;;;;0.20;0.20;;;6.60;85.10;;;;;;5102356;28;20048;-71
2023/12/14 11:41:03;;;;;;;0.03;0.03;;;6.50;84.80;;;;;;5069084;28;20048;-71
2023/12/14 11:43:29;;;;;;;0.00;0.00;;;6.40;84.80;;;;;;5086820;28;20036;-71
2023/12/14 11:45:55;;;;;;;0.25;0.25;;;6.50;84.80;;;;;;5086900;28;20044;-71
2023/12/14 11:48:21;;;;;;;3.83;1.02;;;6.50;85.10;;;;;;5101845;28;20117;-71
2023/12/14 11:50:47;;;;;;;0.28;0.28;;;6.40;84.90;;;;;;5086673;28;20839;-71
2023/12/14 11:53:13;;;;;;;0.00;0.00;;;6.40;85.10;;;;;;5068990;28;20084;-71
2023/12/14 11:55:41;;;;;;;0.43;0.43;;;6.30;84.90;;;;;;5086468;28;20048;-71
2023/12/14 11:58:08;;;;;;;0.03;0.03;;;6.20;84.80;;;;;;5086523;28;20056;-71
2023/12/14 12:00:37;;;;;;;1.13;1.02;;;6.20;84.20;;;;;;5068828;28;20494;-71
2023/12/14 12:03:15;;;;;;;0.20;0.20;;;6.30;84.80;;;;;;5068521;28;20040;-72
2023/12/14 12:05:49;;;;;;;0.00;0.00;;;6.20;84.60;;;;;;5086756;28;20048;-72
2023/12/14 12:08:18;;;;;;;0.10;0.10;;;6.30;84.90;;;;;;5087009;28;20174;-71
2023/12/14 12:10:44;;;;;;;0.00;0.00;;;6.30;84.60;;;;;;5073054;28;20044;-71
2023/12/14 12:13:16;;;;;;;0.10;0.10;;;6.30;85.10;;;;;;5090695;28;20044;-71
2023/12/14 12:15:42;;;;;;;1.65;1.55;;;6.20;85.00;;;;;;5090851;28;20825;-71
2023/12/14 12:18:09;;;;;;;0.10;0.10;;;6.30;85.10;;;;;;5106229;28;20048;-71
2023/12/14 12:20:35;;;;;;;0.00;0.00;;;6.20;85.30;;;;;;5072451;28;20117;-71
2023/12/14 12:23:01;;;;;;;0.00;0.00;;;6.30;85.50;;;;;;5072785;28;20081;-72
2023/12/14 12:25:27;;;;;;;0.08;0.08;;;6.40;85.50;;;;;;5090289;28;20056;-71
2023/12/14 12:28:01;;;;;;;0.00;0.00;;;6.40;85.60;;;;;;5089016;28;20058;-71
2023/12/14 12:30:27;;;;;;;0.20;0.20;;;6.40;85.20;;;;;;5071913;28;20047;-71
2023/12/14 12:32:53;;;;;;;0.00;0.00;;;6.40;85.10;;;;;;5090542;28;20140;-71
2023/12/14 12:35:19;;;;;;;0.73;0.73;;;6.50;84.90;;;;;;5072201;28;20082;-71
2023/12/14 12:37:45;;;;;;;0.10;0.10;;;6.40;84.70;;;;;;5090193;28;20754;-72
2023/12/14 12:40:11;;;;;;;0.03;0.03;;;6.40;85.00;;;;;;5106097;28;20056;-71
2023/12/14 12:42:37;;;;;;;0.00;0.00;;;6.40;85.00;;;;;;5106268;28;20052;-71
2023/12/14 12:45:04;;;;;;;0.00;0.00;;;6.40;84.50;;;;;;5090692;28;20494;-71
2023/12/14 12:47:30;;;;;;;0.00;0.00;;;6.50;84.50;;;;;;5071953;28;20044;-71
2023/12/14 12:49:56;;;;;;;0.00;0.00;;;6.50;84.90;;;;;;5071666;28;20048;-71
2023/12/14 12:52:21;;;;;;;0.00;0.00;;;6.60;85.00;;;;;;5089670;28;20115;-71